Create Custom Reports and Graphics: Custom Report

Latest Observations

Map

15 Minute Data

Lake County North

13 Stations

15 Minute Data | America/Los_Angeles
as of 12/12/19 10:05 AM PST
Station Date Time Temp (°F) Dew Pt (°F) RH (%) Wind Spd (mph) Wind Dir (°) Wind Gust (mph) Latest Rain (In) Daily Rain (In) Daily Min Temp (°F) Daily Max Temp (°F)
Upper Lake (UPL) 12/12/19 1000 54.9   6.1 55.0   6.1 100 1.2 S | 172 3.0 0.00 0.03 49.9   4.2 55.6   6.5
Scotts Valley (SVL) 12/12/19 1000 54.9   6.9 55.0   6.9 100 2.8 W | 266 6.4 0.00 0.03 44.8   1.2 55.4   7.2
High Valley Ridgeline (Brassfield) 12/12/19 1000 50.4   5.1 50.4   5.1 100 10.1 WSW | 240 15.7 0.00 0.01 49.0   6.2 50.7   5.3
Ridgeline Top (Brassfield) 12/12/19 1000 50.5   5.2 - - - - - - - 49.1   6.4 50.9   5.4
Ridgeline Low (Brassfield) 12/12/19 1000 52.0   5.5 - - - - - - - 49.8   6.1 52.1   5.5
High Valley Winery 12/12/19 1000 53.7   6.3 51.1   3.6 91 7.7 SW | 235 13.1 0.00 0.01 50.3   5.6 54.0   6.4
Kelseyville (KEL) 12/12/19 1000 55.4   7.1 52.7   3.9 87 4.5 WSW | 239 8.3 0.00 0.03 46.6   1.0 56.8   7.4
Kelseyville Remote 12/12/19 1000 56.1   6.5 49.8   2.6 79 - - - - - 47.5   0.4 56.3   6.4
Kelseyville South (SML) 12/12/19 1000 55.2   6.9 53.2   4.9 93 1.9 WSW | 253 8.1 0.00 0.01 48.8   2.6 55.7   7.3
Bell Hill West (BHR) 12/12/19 1000 54.4   6.0 53.3   4.9 96 1.8 WSW | 250 5.9 0.00 0.01 48.9   2.8 54.7   6.2
Wight Way 12/12/19 1000 57.4   8.8 51.4   3.1 80 1.6 WSW | 245 3.9 0.00 0.00 55.0   8.8 57.9   9.2
Red Hills (Beckstoffer) 12/12/19 1000 55.2   8.0 51.1   3.9 86 - - - - - 43.4   1.2 55.5   8.1
Red Hills East (2200ft) 12/12/19 1000 55.3   9.2 50.0   3.9 82 1.0 N | 2 3.1 0.00 0.01 45.7   2.0 55.7   9.6
Max     57.4 55.0 100 10.1 - 15.7 0.00 0.03 55.0 57.9
Avg     54.3 52.1 90 3.6 - 7.5 0.00 - - -
Min     50.4 49.8 79 1.0 - 3.0 0.00 0.00 43.4 50.7

Latest Observation

9 Stations

15 Minute Data | America/Los_Angeles
as of 12/12/19 10:05 AM PST
Station Date Time Temp (°F) Dew Pt (°F) RH (%) Upper Temp (°F) Wind Spd (mph) Wind Dir (°) Wind Gust (mph) Latest Rain (In) Daily Rain (In) Daily Min Temp (°F) Daily Max Temp (°F)
Diamond D (Middletown) 12/12/19 0945 55.9   7.6 52.0   3.7 86   13 56.1   7.6 7.3 SSW | 208 12.5   12.5 0.00 0.06 51.8   4.9 56.4   7.8
Bella Vista-Middletown West 12/12/19 1000 56.5   7.9 53.1   4.5 88   12 - - - - - - 51.2   4.9 56.6   7.9
Middletown-South 11/25/19 0045 37.2   0.9 32.6   1.5 85   1 - 1.4 S | 176 3.4   1.3 0.00 0.00 36.2   1.5 39.7   0.3
Lower Bohn 12/12/19 1000 58.3   9.1 54.4   5.2 87   13 - 3.5 SSW | 192 7.2   3.4 0.00 0.01 50.3   2.7 59.2   9.7
Upper Bohn South 12/12/19 1000 56.4   6.4 56.0   7.1 99   3 - 2.2 SE | 139 5.0   3.9 0.00 0.02 52.6   4.7 56.6   6.4
Upper Bohn North 12/12/19 1000 56.6   6.5 56.4   6.5 99   0 - 3.7 SSE | 168 6.4   4.8 0.00 0.02 51.6   3.9 57.0   6.5
Morgan Valley (HSM) 12/12/19 1000 0.0   45.0 0.0   45.0 100   0 - 8.4 SW | 222 12.2   8.1 0.00 0.04 0.0   41.8 0.0   45.1
Mine Pit South 12/10/19 1745 45.4   4.5 45.1   0.3 99   16 - 1.2 NW | 319 4.4   2.4 0.00 0.25 44.3   1.6 60.5   0.0
Mine Pit North 12/10/19 1845 45.7   1.4 45.7   0.7 100   8 - 2.6 SSE | 164 4.4   3.1 - - 37.7   1.3 54.0   5.7
Max     58.3 56.4 100 - 8.4 - 12.5 0.00 0.06 52.6 59.2
Avg     47.3 45.3 93 - 5.0 - 8.7 0.00 - - -
Min     0.0 0.0 86 - 2.2 - 5.0 0.00 0.01 0.0 0.0